sensor_id;sensor_type;location;lat;lon;timestamp;pressure;altitude;pressure_sealevel;temperature;humidity
50226;BME280;36113;50.742;6.432;2023-09-19T00:00:30;98215.63;;;14.40;80.68
50226;BME280;36113;50.742;6.432;2023-09-19T00:02:57;98164.63;;;14.13;80.96
50226;BME280;36113;50.742;6.432;2023-09-19T00:05:28;98219.88;;;14.46;80.83
50226;BME280;36113;50.742;6.432;2023-09-19T00:07:56;98213.69;;;14.41;80.84
50226;BME280;36113;50.742;6.432;2023-09-19T00:10:24;98217.13;;;14.46;79.57
50226;BME280;36113;50.742;6.432;2023-09-19T00:12:53;98222.91;;;14.45;79.63
50226;BME280;36113;50.742;6.432;2023-09-19T00:15:22;98182.09;;;14.26;79.49
50226;BME280;36113;50.742;6.432;2023-09-19T00:17:48;98219.38;;;14.44;79.80
50226;BME280;36113;50.742;6.432;2023-09-19T00:20:14;98194.84;;;14.31;79.54
50226;BME280;36113;50.742;6.432;2023-09-19T00:22:42;98189.16;;;14.27;79.15
50226;BME280;36113;50.742;6.432;2023-09-19T00:25:08;98216.28;;;14.37;79.75
50226;BME280;36113;50.742;6.432;2023-09-19T00:27:38;98217.88;;;14.38;79.26
50226;BME280;36113;50.742;6.432;2023-09-19T00:30:08;98224.34;;;14.42;79.47
50226;BME280;36113;50.742;6.432;2023-09-19T00:32:41;98226.78;;;14.44;78.93
50226;BME280;36113;50.742;6.432;2023-09-19T00:35:07;98219.38;;;14.44;78.38
50226;BME280;36113;50.742;6.432;2023-09-19T00:37:34;98222.91;;;14.45;78.97
50226;BME280;36113;50.742;6.432;2023-09-19T00:39:59;98232.34;;;14.39;78.37
50226;BME280;36113;50.742;6.432;2023-09-19T00:42:25;98218.13;;;14.28;78.47
50226;BME280;36113;50.742;6.432;2023-09-19T00:44:51;98249.44;;;14.44;78.02
50226;BME280;36113;50.742;6.432;2023-09-19T00:47:17;98241.25;;;14.44;77.80
50226;BME280;36113;50.742;6.432;2023-09-19T00:49:44;98240.31;;;14.49;77.94
50226;BME280;36113;50.742;6.432;2023-09-19T00:52:14;98210.09;;;14.32;77.69
50226;BME280;36113;50.742;6.432;2023-09-19T00:54:39;98237.28;;;14.51;77.24
50226;BME280;36113;50.742;6.432;2023-09-19T00:57:04;98237.88;;;14.47;76.97
50226;BME280;36113;50.742;6.432;2023-09-19T00:59:30;98234.41;;;14.33;76.83
50226;BME280;36113;50.742;6.432;2023-09-19T01:01:56;98232.69;;;14.37;76.75
50226;BME280;36113;50.742;6.432;2023-09-19T01:04:22;98247.72;;;14.48;76.18
50226;BME280;36113;50.742;6.432;2023-09-19T01:06:49;98255.41;;;14.46;76.39
50226;BME280;36113;50.742;6.432;2023-09-19T01:09:19;98261.81;;;14.42;75.77
50226;BME280;36113;50.742;6.432;2023-09-19T01:11:47;98262.06;;;14.32;76.42
50226;BME280;36113;50.742;6.432;2023-09-19T01:14:24;98274.22;;;14.25;75.83
50226;BME280;36113;50.742;6.432;2023-09-19T01:17:07;98261.47;;;14.21;75.48
50226;BME280;36113;50.742;6.432;2023-09-19T01:22:46;98276.69;;;14.13;76.75
50226;BME280;36113;50.742;6.432;2023-09-19T01:25:22;98279.72;;;14.12;76.78
50226;BME280;36113;50.742;6.432;2023-09-19T01:31:02;98290.06;;;14.01;77.48
50226;BME280;36113;50.742;6.432;2023-09-19T01:33:28;98273.09;;;13.90;77.68
50226;BME280;36113;50.742;6.432;2023-09-19T01:35:59;98285.81;;;13.95;77.59
50226;BME280;36113;50.742;6.432;2023-09-19T01:38:25;98262.41;;;13.80;78.01
50226;BME280;36113;50.742;6.432;2023-09-19T01:41:03;98259.66;;;13.80;78.00
50226;BME280;36113;50.742;6.432;2023-09-19T01:43:37;98257.03;;;13.61;78.55
50226;BME280;36113;50.742;6.432;2023-09-19T01:46:28;98299.63;;;13.90;78.32
50226;BME280;36113;50.742;6.432;2023-09-19T01:52:09;98266.75;;;13.67;78.59
50226;BME280;36113;50.742;6.432;2023-09-19T01:54:51;98270.63;;;13.66;78.69
50226;BME280;36113;50.742;6.432;2023-09-19T01:57:27;98302.06;;;13.77;79.29
50226;BME280;36113;50.742;6.432;2023-09-19T02:00:02;98308.50;;;13.81;79.33
50226;BME280;36113;50.742;6.432;2023-09-19T02:02:34;98256.88;;;13.57;78.77
50226;BME280;36113;50.742;6.432;2023-09-19T02:04:59;98302.25;;;13.81;78.74
50226;BME280;36113;50.742;6.432;2023-09-19T02:07:25;98266.66;;;13.58;78.22
50226;BME280;36113;50.742;6.432;2023-09-19T02:09:51;98273.44;;;13.61;78.20
50226;BME280;36113;50.742;6.432;2023-09-19T02:12:16;98278.28;;;13.50;78.83
50226;BME280;36113;50.742;6.432;2023-09-19T02:14:42;98276.38;;;13.51;78.96
50226;BME280;36113;50.742;6.432;2023-09-19T02:17:07;98305.28;;;13.65;79.03
50226;BME280;36113;50.742;6.432;2023-09-19T02:19:34;98297.81;;;13.57;79.50
50226;BME280;36113;50.742;6.432;2023-09-19T02:22:00;98294.38;;;13.52;79.84
50226;BME280;36113;50.742;6.432;2023-09-19T02:24:28;98288.31;;;13.41;79.40
50226;BME280;36113;50.742;6.432;2023-09-19T02:26:53;98304.91;;;13.44;80.03
50226;BME280;36113;50.742;6.432;2023-09-19T02:29:19;98311.28;;;13.54;79.46
50226;BME280;36113;50.742;6.432;2023-09-19T02:31:47;98309.34;;;13.54;79.23
50226;BME280;36113;50.742;6.432;2023-09-19T02:34:12;98302.69;;;13.47;79.45
50226;BME280;36113;50.742;6.432;2023-09-19T02:36:41;98311.66;;;13.47;79.44
50226;BME280;36113;50.742;6.432;2023-09-19T02:39:09;98293.16;;;13.30;79.42
50226;BME280;36113;50.742;6.432;2023-09-19T02:41:36;98321.34;;;13.39;79.83
50226;BME280;36113;50.742;6.432;2023-09-19T02:44:01;98310.44;;;13.39;79.61
50226;BME280;36113;50.742;6.432;2023-09-19T02:46:27;98308.09;;;13.33;79.74
50226;BME280;36113;50.742;6.432;2023-09-19T02:48:52;98310.09;;;13.27;79.88
50226;BME280;36113;50.742;6.432;2023-09-19T02:51:20;98291.41;;;13.20;79.73
50226;BME280;36113;50.742;6.432;2023-09-19T02:53:45;98310.34;;;13.31;79.65
50226;BME280;36113;50.742;6.432;2023-09-19T02:56:12;98317.13;;;13.33;79.46
50226;BME280;36113;50.742;6.432;2023-09-19T02:58:38;98303.63;;;13.23;79.60
50226;BME280;36113;50.742;6.432;2023-09-19T03:01:08;98304.38;;;13.29;79.52
50226;BME280;36113;50.742;6.432;2023-09-19T03:03:34;98314.06;;;13.35;79.20
50226;BME280;36113;50.742;6.432;2023-09-19T03:05:59;98293.63;;;13.18;79.24
50226;BME280;36113;50.742;6.432;2023-09-19T03:08:30;98297.94;;;13.19;79.11
50226;BME280;36113;50.742;6.432;2023-09-19T03:10:55;98292.09;;;13.12;79.36
50226;BME280;36113;50.742;6.432;2023-09-19T03:13:20;98304.13;;;13.11;79.14
50226;BME280;36113;50.742;6.432;2023-09-19T03:15:46;98323.50;;;13.29;78.45
50226;BME280;36113;50.742;6.432;2023-09-19T03:18:12;98317.28;;;13.23;78.04
50226;BME280;36113;50.742;6.432;2023-09-19T03:20:38;98278.44;;;12.98;78.16
50226;BME280;36113;50.742;6.432;2023-09-19T03:23:03;98271.75;;;12.91;78.97
50226;BME280;36113;50.742;6.432;2023-09-19T03:25:31;98320.00;;;13.23;77.84
50226;BME280;36113;50.742;6.432;2023-09-19T03:27:56;98270.91;;;12.90;77.74
50226;BME280;36113;50.742;6.432;2023-09-19T03:30:23;98322.03;;;13.17;77.95
50226;BME280;36113;50.742;6.432;2023-09-19T03:32:49;98310.38;;;13.12;77.44
50226;BME280;36113;50.742;6.432;2023-09-19T03:35:16;98324.81;;;13.12;77.71
50226;BME280;36113;50.742;6.432;2023-09-19T03:37:42;98320.88;;;13.04;77.96
50226;BME280;36113;50.742;6.432;2023-09-19T03:40:09;98321.00;;;13.13;77.42
50226;BME280;36113;50.742;6.432;2023-09-19T03:42:38;98314.81;;;13.08;77.57
50226;BME280;36113;50.742;6.432;2023-09-19T03:45:03;98312.69;;;13.04;76.86
50226;BME280;36113;50.742;6.432;2023-09-19T03:47:29;98326.84;;;13.07;77.11
50226;BME280;36113;50.742;6.432;2023-09-19T03:49:54;98324.19;;;13.01;77.40
50226;BME280;36113;50.742;6.432;2023-09-19T03:52:19;98322.38;;;12.97;77.26
50226;BME280;36113;50.742;6.432;2023-09-19T03:54:45;98324.00;;;12.98;76.81
50226;BME280;36113;50.742;6.432;2023-09-19T03:57:10;98326.22;;;12.96;77.56
50226;BME280;36113;50.742;6.432;2023-09-19T03:59:37;98309.22;;;12.85;77.47
50226;BME280;36113;50.742;6.432;2023-09-19T04:02:03;98297.28;;;12.81;77.08
50226;BME280;36113;50.742;6.432;2023-09-19T04:04:29;98306.19;;;12.87;77.50
50226;BME280;36113;50.742;6.432;2023-09-19T04:06:55;98322.16;;;12.93;77.16
50226;BME280;36113;50.742;6.432;2023-09-19T04:09:20;98322.69;;;12.95;77.56
50226;BME280;36113;50.742;6.432;2023-09-19T04:11:45;98317.91;;;12.87;77.87
50226;BME280;36113;50.742;6.432;2023-09-19T04:14:10;98327.19;;;12.86;77.72
50226;BME280;36113;50.742;6.432;2023-09-19T04:16:36;98333.75;;;12.85;77.90
50226;BME280;36113;50.742;6.432;2023-09-19T04:19:01;98315.66;;;12.75;78.28
50226;BME280;36113;50.742;6.432;2023-09-19T04:21:28;98321.00;;;12.80;78.25
50226;BME280;36113;50.742;6.432;2023-09-19T04:23:54;98324.78;;;12.84;77.65
50226;BME280;36113;50.742;6.432;2023-09-19T04:26:19;98311.06;;;12.71;77.84
50226;BME280;36113;50.742;6.432;2023-09-19T04:28:45;98281.63;;;12.54;77.68
50226;BME280;36113;50.742;6.432;2023-09-19T04:31:11;98333.34;;;12.78;77.61
50226;BME280;36113;50.742;6.432;2023-09-19T04:33:37;98337.81;;;12.88;77.18
50226;BME280;36113;50.742;6.432;2023-09-19T04:36:02;98329.63;;;12.88;77.52
50226;BME280;36113;50.742;6.432;2023-09-19T04:38:30;98328.59;;;12.83;77.20
50226;BME280;36113;50.742;6.432;2023-09-19T04:40:58;98290.25;;;12.61;77.58
50226;BME280;36113;50.742;6.432;2023-09-19T04:43:24;98331.84;;;12.86;77.67
50226;BME280;36113;50.742;6.432;2023-09-19T04:45:50;98329.09;;;12.86;77.40
50226;BME280;36113;50.742;6.432;2023-09-19T04:48:16;98326.19;;;12.82;77.42
50226;BME280;36113;50.742;6.432;2023-09-19T04:50:41;98323.66;;;12.86;77.30
50226;BME280;36113;50.742;6.432;2023-09-19T04:53:06;98325.03;;;12.69;77.22
50226;BME280;36113;50.742;6.432;2023-09-19T04:55:32;98342.69;;;12.72;77.42
50226;BME280;36113;50.742;6.432;2023-09-19T04:57:58;98347.94;;;12.68;77.86
50226;BME280;36113;50.742;6.432;2023-09-19T05:00:23;98314.44;;;12.49;77.68
50226;BME280;36113;50.742;6.432;2023-09-19T05:02:50;98335.56;;;12.57;77.78
50226;BME280;36113;50.742;6.432;2023-09-19T05:05:16;98331.09;;;12.47;77.92
50226;BME280;36113;50.742;6.432;2023-09-19T05:07:45;98325.03;;;12.50;77.62
50226;BME280;36113;50.742;6.432;2023-09-19T05:10:10;98357.97;;;12.54;77.27
50226;BME280;36113;50.742;6.432;2023-09-19T05:12:37;98343.22;;;12.55;76.86
50226;BME280;36113;50.742;6.432;2023-09-19T05:15:03;98360.84;;;12.62;76.48
50226;BME280;36113;50.742;6.432;2023-09-19T05:17:29;98374.09;;;12.69;76.77
50226;BME280;36113;50.742;6.432;2023-09-19T05:19:54;98373.59;;;12.67;77.01
50226;BME280;36113;50.742;6.432;2023-09-19T05:22:20;98388.31;;;12.66;76.66
50226;BME280;36113;50.742;6.432;2023-09-19T05:24:45;98387.00;;;12.63;76.80
50226;BME280;36113;50.742;6.432;2023-09-19T05:27:16;98384.06;;;12.60;77.31
50226;BME280;36113;50.742;6.432;2023-09-19T05:29:43;98386.47;;;12.61;77.11
50226;BME280;36113;50.742;6.432;2023-09-19T05:32:09;98363.00;;;12.47;77.53
50226;BME280;36113;50.742;6.432;2023-09-19T05:34:36;98392.25;;;12.60;77.55
50226;BME280;36113;50.742;6.432;2023-09-19T05:37:01;98381.19;;;12.51;77.88
50226;BME280;36113;50.742;6.432;2023-09-19T05:39:27;98396.28;;;12.62;77.55
50226;BME280;36113;50.742;6.432;2023-09-19T05:41:52;98398.13;;;12.67;77.42
50226;BME280;36113;50.742;6.432;2023-09-19T05:44:17;98385.97;;;12.59;77.79
50226;BME280;36113;50.742;6.432;2023-09-19T05:46:43;98393.03;;;12.60;77.78
50226;BME280;36113;50.742;6.432;2023-09-19T05:49:08;98377.88;;;12.54;77.38
50226;BME280;36113;50.742;6.432;2023-09-19T05:51:33;98404.63;;;12.71;77.81
50226;BME280;36113;50.742;6.432;2023-09-19T05:53:59;98406.75;;;12.74;78.00
50226;BME280;36113;50.742;6.432;2023-09-19T05:56:24;98406.16;;;12.77;77.35
50226;BME280;36113;50.742;6.432;2023-09-19T05:58:49;98406.47;;;12.76;77.68
50226;BME280;36113;50.742;6.432;2023-09-19T06:01:17;98389.94;;;12.67;77.36
50226;BME280;36113;50.742;6.432;2023-09-19T06:03:43;98374.75;;;12.61;76.88
50226;BME280;36113;50.742;6.432;2023-09-19T06:06:08;98430.19;;;12.94;76.95
50226;BME280;36113;50.742;6.432;2023-09-19T06:08:34;98422.09;;;12.89;77.01
50226;BME280;36113;50.742;6.432;2023-09-19T06:10:59;98406.59;;;12.84;76.88
50226;BME280;36113;50.742;6.432;2023-09-19T06:13:28;98433.44;;;12.96;76.40
50226;BME280;36113;50.742;6.432;2023-09-19T06:15:54;98426.41;;;12.90;76.40
50226;BME280;36113;50.742;6.432;2023-09-19T06:18:21;98440.72;;;13.01;76.52
50226;BME280;36113;50.742;6.432;2023-09-19T06:20:47;98439.63;;;13.02;76.61
50226;BME280;36113;50.742;6.432;2023-09-19T06:23:13;98447.22;;;13.05;76.58
50226;BME280;36113;50.742;6.432;2023-09-19T06:25:38;98423.03;;;12.98;76.45
50226;BME280;36113;50.742;6.432;2023-09-19T06:28:04;98427.31;;;13.04;76.65
50226;BME280;36113;50.742;6.432;2023-09-19T06:30:33;98404.53;;;12.95;76.10
50226;BME280;36113;50.742;6.432;2023-09-19T06:33:00;98400.00;;;13.04;75.83
50226;BME280;36113;50.742;6.432;2023-09-19T06:35:26;98421.97;;;13.32;75.50
50226;BME280;36113;50.742;6.432;2023-09-19T06:37:52;98432.19;;;13.40;75.36
50226;BME280;36113;50.742;6.432;2023-09-19T06:40:18;98440.00;;;13.47;75.07
50226;BME280;36113;50.742;6.432;2023-09-19T06:42:50;98422.94;;;13.55;74.59
50226;BME280;36113;50.742;6.432;2023-09-19T06:45:16;98439.63;;;13.68;74.46
50226;BME280;36113;50.742;6.432;2023-09-19T06:47:48;98439.25;;;13.74;74.01
50226;BME280;36113;50.742;6.432;2023-09-19T06:50:20;98412.44;;;13.62;74.28
50226;BME280;36113;50.742;6.432;2023-09-19T06:52:48;98438.44;;;13.87;74.06
50226;BME280;36113;50.742;6.432;2023-09-19T06:55:17;98446.16;;;13.99;73.29
50226;BME280;36113;50.742;6.432;2023-09-19T06:57:43;98429.97;;;14.03;73.39
50226;BME280;36113;50.742;6.432;2023-09-19T07:00:09;98444.75;;;14.16;72.81
50226;BME280;36113;50.742;6.432;2023-09-19T07:02:43;98426.31;;;14.07;72.59
50226;BME280;36113;50.742;6.432;2023-09-19T07:05:08;98415.38;;;14.07;72.08
50226;BME280;36113;50.742;6.432;2023-09-19T07:07:34;98426.22;;;14.26;72.15
50226;BME280;36113;50.742;6.432;2023-09-19T07:10:01;98436.34;;;14.26;71.52
50226;BME280;36113;50.742;6.432;2023-09-19T07:12:26;98411.94;;;14.16;71.46
50226;BME280;36113;50.742;6.432;2023-09-19T07:14:51;98406.47;;;14.16;71.67
50226;BME280;36113;50.742;6.432;2023-09-19T07:17:17;98404.03;;;14.28;71.17
50226;BME280;36113;50.742;6.432;2023-09-19T07:19:44;98433.69;;;14.48;70.61
50226;BME280;36113;50.742;6.432;2023-09-19T07:22:09;98404.63;;;14.39;70.16
50226;BME280;36113;50.742;6.432;2023-09-19T07:24:34;98437.72;;;14.65;69.76
50226;BME280;36113;50.742;6.432;2023-09-19T07:27:02;98418.69;;;14.60;69.36
50226;BME280;36113;50.742;6.432;2023-09-19T07:29:28;98427.28;;;14.67;69.81
50226;BME280;36113;50.742;6.432;2023-09-19T07:31:53;98455.81;;;14.88;69.28
50226;BME280;36113;50.742;6.432;2023-09-19T07:34:19;98421.59;;;14.77;68.36
50226;BME280;36113;50.742;6.432;2023-09-19T07:36:46;98452.81;;;14.99;68.79
50226;BME280;36113;50.742;6.432;2023-09-19T07:39:12;98459.50;;;15.06;68.36
50226;BME280;36113;50.742;6.432;2023-09-19T07:41:37;98461.81;;;15.13;68.24
50226;BME280;36113;50.742;6.432;2023-09-19T07:44:03;98426.47;;;15.03;67.69
50226;BME280;36113;50.742;6.432;2023-09-19T07:46:28;98461.59;;;15.23;67.33
50226;BME280;36113;50.742;6.432;2023-09-19T07:48:57;98474.91;;;15.39;67.53
50226;BME280;36113;50.742;6.432;2023-09-19T07:51:22;98433.56;;;15.26;66.22
50226;BME280;36113;50.742;6.432;2023-09-19T07:53:47;98465.97;;;15.56;65.46
50226;BME280;36113;50.742;6.432;2023-09-19T07:56:13;98475.19;;;15.60;65.06
50226;BME280;36113;50.742;6.432;2023-09-19T07:58:39;98469.72;;;15.60;64.47
50226;BME280;36113;50.742;6.432;2023-09-19T08:01:07;98467.66;;;15.65;65.16
50226;BME280;36113;50.742;6.432;2023-09-19T08:03:33;98469.78;;;15.68;64.71
50226;BME280;36113;50.742;6.432;2023-09-19T08:05:59;98485.31;;;15.73;64.14
50226;BME280;36113;50.742;6.432;2023-09-19T08:08:25;98463.94;;;15.61;64.45
50226;BME280;36113;50.742;6.432;2023-09-19T08:10:55;98467.16;;;15.86;64.50
50226;BME280;36113;50.742;6.432;2023-09-19T08:13:24;98452.47;;;15.82;64.00
50226;BME280;36113;50.742;6.432;2023-09-19T08:15:50;98452.38;;;15.96;63.25
50226;BME280;36113;50.742;6.432;2023-09-19T08:18:19;98475.13;;;16.05;63.70
50226;BME280;36113;50.742;6.432;2023-09-19T08:20:52;98450.78;;;16.03;63.04
50226;BME280;36113;50.742;6.432;2023-09-19T08:23:18;98476.94;;;16.09;62.49
50226;BME280;36113;50.742;6.432;2023-09-19T08:25:45;98470.16;;;16.07;62.65
50226;BME280;36113;50.742;6.432;2023-09-19T08:28:10;98465.50;;;16.16;62.48
50226;BME280;36113;50.742;6.432;2023-09-19T08:30:37;98444.84;;;16.10;61.97
50226;BME280;36113;50.742;6.432;2023-09-19T08:33:05;98447.78;;;16.22;61.68
50226;BME280;36113;50.742;6.432;2023-09-19T08:35:31;98467.72;;;16.45;60.73
50226;BME280;36113;50.742;6.432;2023-09-19T08:37:57;98439.94;;;16.38;61.45
50226;BME280;36113;50.742;6.432;2023-09-19T08:40:22;98432.53;;;16.47;61.13
50226;BME280;36113;50.742;6.432;2023-09-19T08:42:53;98454.03;;;16.71;60.01
50226;BME280;36113;50.742;6.432;2023-09-19T08:45:20;98458.59;;;16.76;60.21
50226;BME280;36113;50.742;6.432;2023-09-19T08:48:16;98452.50;;;16.88;59.37
50226;BME280;36113;50.742;6.432;2023-09-19T08:50:50;98439.72;;;16.83;59.22
50226;BME280;36113;50.742;6.432;2023-09-19T08:53:26;98475.09;;;17.02;58.78
50226;BME280;36113;50.742;6.432;2023-09-19T08:55:52;98470.25;;;17.16;58.53
50226;BME280;36113;50.742;6.432;2023-09-19T08:58:25;98470.56;;;17.32;58.30
50226;BME280;36113;50.742;6.432;2023-09-19T09:00:53;98467.16;;;17.35;57.83
50226;BME280;36113;50.742;6.432;2023-09-19T09:03:20;98481.06;;;17.30;57.49
50226;BME280;36113;50.742;6.432;2023-09-19T09:05:47;98458.13;;;17.17;56.62
50226;BME280;36113;50.742;6.432;2023-09-19T09:08:13;98481.25;;;17.43;58.32
50226;BME280;36113;50.742;6.432;2023-09-19T09:10:39;98465.06;;;17.50;57.93
50226;BME280;36113;50.742;6.432;2023-09-19T09:13:06;98458.13;;;17.44;56.98
50226;BME280;36113;50.742;6.432;2023-09-19T09:15:35;98483.31;;;17.63;56.34
50226;BME280;36113;50.742;6.432;2023-09-19T09:18:02;98451.00;;;17.51;56.75
50226;BME280;36113;50.742;6.432;2023-09-19T09:20:28;98466.94;;;17.84;56.78
50226;BME280;36113;50.742;6.432;2023-09-19T09:22:55;98474.63;;;18.08;56.96
50226;BME280;36113;50.742;6.432;2023-09-19T09:25:21;98454.06;;;18.14;55.20
50226;BME280;36113;50.742;6.432;2023-09-19T09:28:02;98450.09;;;17.94;54.42
50226;BME280;36113;50.742;6.432;2023-09-19T09:30:33;98467.09;;;17.96;55.86
50226;BME280;36113;50.742;6.432;2023-09-19T09:33:12;98464.78;;;18.07;56.86
50226;BME280;36113;50.742;6.432;2023-09-19T09:35:54;98464.88;;;18.19;55.98
50226;BME280;36113;50.742;6.432;2023-09-19T09:38:23;98462.13;;;18.19;54.74
50226;BME280;36113;50.742;6.432;2023-09-19T09:40:57;98445.56;;;17.98;55.14
50226;BME280;36113;50.742;6.432;2023-09-19T09:43:37;98462.50;;;18.09;55.04
50226;BME280;36113;50.742;6.432;2023-09-19T09:48:58;98459.66;;;18.35;54.68
50226;BME280;36113;50.742;6.432;2023-09-19T09:51:48;98451.94;;;18.50;54.09
50226;BME280;36113;50.742;6.432;2023-09-19T09:54:23;98449.09;;;18.37;53.85
50226;BME280;36113;50.742;6.432;2023-09-19T09:56:59;98461.81;;;18.51;52.79
50226;BME280;36113;50.742;6.432;2023-09-19T10:02:20;98437.66;;;18.56;53.29
50226;BME280;36113;50.742;6.432;2023-09-19T10:04:51;98447.06;;;18.55;53.17
50226;BME280;36113;50.742;6.432;2023-09-19T10:07:28;98444.16;;;18.52;53.28
50226;BME280;36113;50.742;6.432;2023-09-19T10:09:59;98429.41;;;18.56;52.97
50226;BME280;36113;50.742;6.432;2023-09-19T10:12:42;98441.38;;;18.60;53.08
50226;BME280;36113;50.742;6.432;2023-09-19T10:15:08;98443.13;;;18.65;52.77
50226;BME280;36113;50.742;6.432;2023-09-19T10:17:36;98443.91;;;18.66;52.74
50226;BME280;36113;50.742;6.432;2023-09-19T10:20:02;98427.22;;;18.71;52.11
50226;BME280;36113;50.742;6.432;2023-09-19T10:22:35;98445.91;;;18.86;51.05
50226;BME280;36113;50.742;6.432;2023-09-19T10:25:04;98453.72;;;18.84;51.38
50226;BME280;36113;50.742;6.432;2023-09-19T10:27:30;98448.13;;;18.93;51.32
50226;BME280;36113;50.742;6.432;2023-09-19T10:30:05;98454.09;;;18.95;50.42
50226;BME280;36113;50.742;6.432;2023-09-19T10:32:32;98455.41;;;18.97;51.01
50226;BME280;36113;50.742;6.432;2023-09-19T10:35:00;98427.56;;;18.90;50.50
50226;BME280;36113;50.742;6.432;2023-09-19T10:37:27;98431.47;;;19.10;50.30
50226;BME280;36113;50.742;6.432;2023-09-19T10:39:56;98442.47;;;19.10;49.28
50226;BME280;36113;50.742;6.432;2023-09-19T10:42:23;98457.13;;;19.23;50.12
50226;BME280;36113;50.742;6.432;2023-09-19T10:44:53;98451.88;;;19.30;48.83
50226;BME280;36113;50.742;6.432;2023-09-19T10:47:19;98444.50;;;19.22;48.84
50226;BME280;36113;50.742;6.432;2023-09-19T10:49:45;98453.50;;;19.10;49.32
50226;BME280;36113;50.742;6.432;2023-09-19T10:52:15;98442.53;;;19.01;49.36
50226;BME280;36113;50.742;6.432;2023-09-19T10:54:47;98438.41;;;18.95;50.27
50226;BME280;36113;50.742;6.432;2023-09-19T10:57:23;98441.81;;;19.13;49.78
50226;BME280;36113;50.742;6.432;2023-09-19T11:00:03;98457.66;;;19.16;48.35
50226;BME280;36113;50.742;6.432;2023-09-19T11:03:23;98464.31;;;18.94;49.39
50226;BME280;36113;50.742;6.432;2023-09-19T11:11:46;98458.84;;;18.65;48.90
50226;BME280;36113;50.742;6.432;2023-09-19T11:30:42;98450.75;;;18.30;49.67
50226;BME280;36113;50.742;6.432;2023-09-19T11:46:26;98437.53;;;18.83;49.16
50226;BME280;36113;50.742;6.432;2023-09-19T11:48:52;98417.09;;;18.84;49.13
50226;BME280;36113;50.742;6.432;2023-09-19T11:51:21;98455.47;;;18.89;49.36
50226;BME280;36113;50.742;6.432;2023-09-19T11:53:50;98466.06;;;18.78;49.62
50226;BME280;36113;50.742;6.432;2023-09-19T11:56:17;98445.06;;;18.65;49.55
50226;BME280;36113;50.742;6.432;2023-09-19T11:58:46;98462.63;;;18.81;48.01
50226;BME280;36113;50.742;6.432;2023-09-19T12:01:15;98477.50;;;18.89;47.95
50226;BME280;36113;50.742;6.432;2023-09-19T12:03:47;98440.50;;;18.69;48.41
50226;BME280;36113;50.742;6.432;2023-09-19T12:06:16;98448.88;;;18.81;48.77
50226;BME280;36113;50.742;6.432;2023-09-19T12:08:42;98458.16;;;18.97;47.63
50226;BME280;36113;50.742;6.432;2023-09-19T12:11:15;98454.88;;;19.04;48.07
50226;BME280;36113;50.742;6.432;2023-09-19T12:13:46;98453.56;;;19.22;47.40
50226;BME280;36113;50.742;6.432;2023-09-19T12:16:16;98455.72;;;19.38;46.70
50226;BME280;36113;50.742;6.432;2023-09-19T12:18:44;98454.34;;;19.44;48.39
50226;BME280;36113;50.742;6.432;2023-09-19T12:21:41;98442.31;;;19.49;47.72
50226;BME280;36113;50.742;6.432;2023-09-19T12:24:15;98434.31;;;19.35;47.51
50226;BME280;36113;50.742;6.432;2023-09-19T12:26:45;98441.47;;;19.48;48.14
50226;BME280;36113;50.742;6.432;2023-09-19T12:29:19;98449.56;;;19.87;48.45
50226;BME280;36113;50.742;6.432;2023-09-19T12:34:23;98444.03;;;19.87;47.32
50226;BME280;36113;50.742;6.432;2023-09-19T12:37:15;98446.00;;;19.98;48.39
50226;BME280;36113;50.742;6.432;2023-09-19T12:39:46;98418.19;;;19.91;47.72
50226;BME280;36113;50.742;6.432;2023-09-19T12:42:15;98428.66;;;19.98;47.59
50226;BME280;36113;50.742;6.432;2023-09-19T12:44:42;98437.97;;;20.05;47.93
50226;BME280;36113;50.742;6.432;2023-09-19T12:47:12;98430.97;;;20.08;47.74
50226;BME280;36113;50.742;6.432;2023-09-19T12:52:52;98406.78;;;19.80;46.47
50226;BME280;36113;50.742;6.432;2023-09-19T12:55:23;98422.78;;;19.87;46.50
50226;BME280;36113;50.742;6.432;2023-09-19T12:58:15;98432.44;;;19.93;48.34
50226;BME280;36113;50.742;6.432;2023-09-19T13:00:42;98423.00;;;19.82;47.30
50226;BME280;36113;50.742;6.432;2023-09-19T13:06:02;98392.03;;;19.64;48.24
50226;BME280;36113;50.742;6.432;2023-09-19T13:08:39;98410.84;;;20.08;48.32
50226;BME280;36113;50.742;6.432;2023-09-19T13:11:10;98420.50;;;20.38;47.71
50226;BME280;36113;50.742;6.432;2023-09-19T13:16:04;98385.66;;;20.34;47.89
50226;BME280;36113;50.742;6.432;2023-09-19T13:18:47;98421.28;;;20.39;47.87
50226;BME280;36113;50.742;6.432;2023-09-19T13:21:14;98403.81;;;20.10;47.88
50226;BME280;36113;50.742;6.432;2023-09-19T13:23:53;98409.00;;;19.99;48.15
50226;BME280;36113;50.742;6.432;2023-09-19T13:26:21;98399.44;;;19.97;48.79
50226;BME280;36113;50.742;6.432;2023-09-19T13:28:47;98389.78;;;20.03;49.54
50226;BME280;36113;50.742;6.432;2023-09-19T13:31:14;98401.19;;;20.01;48.76
50226;BME280;36113;50.742;6.432;2023-09-19T13:33:43;98371.97;;;20.00;49.46
50226;BME280;36113;50.742;6.432;2023-09-19T13:36:10;98397.16;;;20.11;49.57
50226;BME280;36113;50.742;6.432;2023-09-19T13:38:37;98385.78;;;20.00;49.56
50226;BME280;36113;50.742;6.432;2023-09-19T13:41:02;98410.13;;;19.98;49.85
50226;BME280;36113;50.742;6.432;2023-09-19T13:43:27;98395.16;;;19.75;49.33
50226;BME280;36113;50.742;6.432;2023-09-19T13:45:54;98422.84;;;19.66;50.26
50226;BME280;36113;50.742;6.432;2023-09-19T13:48:19;98423.34;;;19.47;50.62
50226;BME280;36113;50.742;6.432;2023-09-19T13:50:47;98405.63;;;19.36;50.51
50226;BME280;36113;50.742;6.432;2023-09-19T13:53:13;98423.59;;;19.54;49.60
50226;BME280;36113;50.742;6.432;2023-09-19T13:55:38;98424.28;;;19.51;50.36
50226;BME280;36113;50.742;6.432;2023-09-19T13:58:03;98428.16;;;19.71;50.87
50226;BME280;36113;50.742;6.432;2023-09-19T14:00:32;98418.53;;;19.77;50.36
50226;BME280;36113;50.742;6.432;2023-09-19T14:03:00;98433.59;;;19.59;49.58
50226;BME280;36113;50.742;6.432;2023-09-19T14:05:26;98424.53;;;19.58;50.07
50226;BME280;36113;50.742;6.432;2023-09-19T14:07:53;98403.25;;;19.47;50.40